createdAt,value
2018-12-16T00:24:42.240Z,101496.95
2018-12-16T00:27:17.782Z,101497.38
2018-12-16T00:29:53.610Z,101488.73
2018-12-16T00:32:29.372Z,101485.02
2018-12-16T00:35:06.629Z,101488.92
2018-12-16T00:37:37.759Z,101490.00
2018-12-16T00:40:11.498Z,101487.70
2018-12-16T00:42:51.579Z,101489.11
2018-12-16T00:45:27.579Z,101486.84
2018-12-16T00:50:44.002Z,101481.98
2018-12-16T00:53:16.708Z,101477.72
2018-12-16T00:55:53.003Z,101478.05
2018-12-16T00:58:30.497Z,101471.98
2018-12-16T01:01:03.498Z,101466.11
2018-12-16T01:03:41.671Z,101462.92
2018-12-16T01:06:14.571Z,101459.83
2018-12-16T01:08:50.598Z,101455.45
2018-12-16T01:11:25.825Z,101454.72
2018-12-16T01:14:01.454Z,101445.33
2018-12-16T01:16:40.510Z,101447.30
2018-12-16T01:19:17.341Z,101439.84
2018-12-16T01:21:48.723Z,101439.31
2018-12-16T01:24:24.861Z,101433.57
2018-12-16T01:27:00.871Z,101427.11
2018-12-16T01:29:31.653Z,101421.48
2018-12-16T01:32:02.644Z,101410.45
2018-12-16T01:34:38.638Z,101418.52
2018-12-16T01:37:11.655Z,101414.91
2018-12-16T01:39:48.929Z,101414.09
2018-12-16T01:42:26.622Z,101410.17
2018-12-16T01:45:02.968Z,101401.89
2018-12-16T01:47:40.145Z,101402.53
2018-12-16T01:50:12.887Z,101396.37
2018-12-16T01:52:50.338Z,101391.83
2018-12-16T01:55:26.173Z,101380.52
2018-12-16T01:58:02.641Z,101378.23
2018-12-16T02:00:38.955Z,101372.83
2018-12-16T02:03:15.527Z,101372.84
2018-12-16T02:05:48.019Z,101375.61
2018-12-16T02:08:24.179Z,101366.09
2018-12-16T02:10:57.048Z,101367.55
2018-12-16T02:13:33.460Z,101357.03
2018-12-16T02:16:09.114Z,101357.61
2018-12-16T02:18:45.217Z,101349.32
2018-12-16T02:21:16.751Z,101350.46
2018-12-16T02:23:47.907Z,101348.02
2018-12-16T02:26:25.349Z,101341.80
2018-12-16T02:29:00.186Z,101347.08
2018-12-16T02:31:32.995Z,101342.70
2018-12-16T02:34:05.981Z,101339.38
2018-12-16T02:36:39.263Z,101327.41
2018-12-16T02:39:18.315Z,101323.81
2018-12-16T02:41:51.158Z,101324.23
2018-12-16T02:44:22.183Z,101328.72
2018-12-16T02:46:52.122Z,101324.57
2018-12-16T02:49:28.820Z,101321.84
2018-12-16T02:52:10.439Z,101320.91
2018-12-16T02:54:45.984Z,101327.55
2018-12-16T02:57:16.595Z,101324.66
2018-12-16T02:59:47.396Z,101324.76
2018-12-16T03:02:24.535Z,101321.40
2018-12-16T03:04:57.652Z,101313.74
2018-12-16T03:07:33.800Z,101316.58
2018-12-16T03:10:07.063Z,101315.81
2018-12-16T03:12:40.232Z,101312.59
2018-12-16T03:15:16.839Z,101314.67
2018-12-16T03:17:57.233Z,101313.61
2018-12-16T03:20:30.255Z,101312.16
2018-12-16T03:23:12.328Z,101302.25
2018-12-16T03:25:45.566Z,101303.03
2018-12-16T03:28:21.954Z,101302.15
2018-12-16T03:30:54.783Z,101294.80
2018-12-16T03:33:31.202Z,101304.02
2018-12-16T03:36:07.792Z,101300.19
2018-12-16T03:38:49.181Z,101294.52
2018-12-16T03:41:22.251Z,101289.66
2018-12-16T03:43:59.074Z,101296.01
2018-12-16T03:46:39.358Z,101288.55
2018-12-16T03:49:16.795Z,101285.89
2018-12-16T03:51:47.850Z,101279.97
2018-12-16T03:54:26.054Z,101281.45
2018-12-16T03:57:02.946Z,101280.73
2018-12-16T03:59:40.538Z,101280.55
2018-12-16T04:02:13.032Z,101271.27
2018-12-16T04:04:54.430Z,101276.84
2018-12-16T04:07:31.566Z,101263.87
2018-12-16T04:10:05.460Z,101259.83
2018-12-16T04:12:36.689Z,101254.52
2018-12-16T04:15:12.834Z,101257.55
2018-12-16T04:18:01.824Z,101258.25
2018-12-16T04:20:34.490Z,101253.32
2018-12-16T04:29:19.898Z,101251.03
2018-12-16T04:32:02.818Z,101236.96
2018-12-16T04:34:39.559Z,101226.55
2018-12-16T05:39:20.355Z,101155.37
2018-12-16T06:24:48.171Z,101109.94
2018-12-16T06:30:24.352Z,101104.61
2018-12-16T06:33:03.625Z,101098.42
2018-12-16T06:35:41.117Z,101094.87
2018-12-16T06:38:21.412Z,101096.22
2018-12-16T06:40:52.569Z,101095.60
2018-12-16T06:43:30.784Z,101090.55
2018-12-16T06:46:06.723Z,101097.48
2018-12-16T06:48:42.849Z,101098.64
2018-12-16T06:51:15.536Z,101098.63
2018-12-16T06:53:49.726Z,101104.09
2018-12-16T06:56:20.458Z,101096.92
2018-12-16T06:58:50.606Z,101096.85
2018-12-16T07:01:28.700Z,101098.27
2018-12-16T07:04:01.492Z,101095.09
2018-12-16T07:06:34.300Z,101081.44
2018-12-16T07:09:08.044Z,101077.14
2018-12-16T07:11:45.158Z,101072.49
2018-12-16T07:17:21.691Z,101068.27
2018-12-16T07:19:51.637Z,101066.08
2018-12-16T07:28:27.891Z,101073.28
2018-12-16T07:39:27.687Z,101088.31
2018-12-16T08:21:51.252Z,101072.48
2018-12-16T08:24:32.632Z,101067.41
2018-12-16T08:30:13.906Z,101064.39
2018-12-16T08:38:57.483Z,101055.47
2018-12-16T08:50:42.160Z,101045.19
2018-12-16T08:59:22.217Z,101036.30
2018-12-16T09:02:00.809Z,101041.69
2018-12-16T09:07:40.444Z,101044.59
2018-12-16T09:13:20.726Z,101043.60
2018-12-16T09:16:06.546Z,101047.76
2018-12-16T09:18:42.282Z,101037.70
2018-12-16T09:27:32.364Z,101030.30
2018-12-16T09:33:18.324Z,101013.31
2018-12-16T09:36:01.113Z,101004.05
2018-12-16T09:47:24.958Z,100986.56
2018-12-16T09:50:02.511Z,100987.67
2018-12-16T09:52:35.728Z,100983.80
2018-12-16T10:10:46.072Z,100971.80
2018-12-16T10:43:42.374Z,100929.88
2018-12-16T10:46:11.999Z,100927.44
2018-12-16T10:48:55.049Z,100927.25
2018-12-16T10:51:33.914Z,100926.75
2018-12-16T10:54:17.994Z,100920.88
2018-12-16T10:59:59.750Z,100914.86
2018-12-16T11:02:54.443Z,100915.33
2018-12-16T11:17:45.710Z,100904.44
2018-12-16T11:20:21.118Z,100901.98
2018-12-16T11:29:14.507Z,100886.44
2018-12-16T12:39:31.787Z,100768.56
2018-12-16T14:10:55.921Z,100791.41
2018-12-16T14:13:32.028Z,100800.03
2018-12-16T14:16:01.366Z,100796.31
2018-12-16T14:18:31.120Z,100790.49
2018-12-16T14:21:00.506Z,100794.40
2018-12-16T14:23:29.955Z,100799.58
2018-12-16T14:25:59.394Z,100796.70
2018-12-16T14:28:29.149Z,100798.89
2018-12-16T14:30:58.875Z,100791.49
2018-12-16T14:33:28.279Z,100796.59
2018-12-16T14:35:58.506Z,100793.29
2018-12-16T14:38:28.350Z,100790.76
2018-12-16T14:40:58.002Z,100792.22
2018-12-16T14:43:29.002Z,100792.44
2018-12-16T14:45:58.724Z,100788.45
2018-12-16T14:48:28.476Z,100790.05
2018-12-16T14:50:57.924Z,100799.59
2018-12-16T14:53:27.343Z,100795.77
2018-12-16T14:55:57.057Z,100791.11
2018-12-16T14:58:26.420Z,100796.36
2018-12-16T15:00:55.762Z,100789.90
2018-12-16T15:03:25.237Z,100792.50
2018-12-16T15:05:54.572Z,100788.80
2018-12-16T15:08:24.306Z,100783.13
2018-12-16T15:10:54.002Z,100780.83
2018-12-16T15:13:23.762Z,100782.25
2018-12-16T15:15:53.144Z,100726.25
2018-12-16T15:18:22.848Z,100774.40
2018-12-16T15:20:52.518Z,100776.34
2018-12-16T15:23:22.314Z,100777.59
2018-12-16T15:25:51.684Z,100777.59
2018-12-16T16:04:25.330Z,100783.56
2018-12-16T16:38:00.178Z,100789.18
2018-12-16T16:40:26.043Z,100795.01
2018-12-16T16:42:56.235Z,100796.63
2018-12-16T16:45:35.605Z,100793.60
2018-12-16T16:48:19.482Z,100795.80
2018-12-16T17:02:59.377Z,100795.05
2018-12-16T17:05:29.145Z,100795.36
2018-12-16T17:07:59.231Z,100800.81
2018-12-16T17:10:28.973Z,100803.67
2018-12-16T17:12:59.339Z,100802.47
2018-12-16T17:15:28.784Z,100800.75
2018-12-16T17:17:58.643Z,100804.70
2018-12-16T17:20:28.116Z,100801.73
2018-12-16T17:22:57.894Z,100803.61
2018-12-16T17:25:27.438Z,100802.63
2018-12-16T17:27:57.291Z,100797.98
2018-12-16T17:30:26.835Z,100795.06
2018-12-16T17:32:57.373Z,100803.59
2018-12-16T17:35:49.642Z,100805.27
2018-12-16T17:38:19.595Z,100804.38
2018-12-16T17:40:49.029Z,100801.94
2018-12-16T17:43:18.565Z,100810.44
2018-12-16T17:45:49.470Z,100807.42
2018-12-16T17:48:23.046Z,100809.92
2018-12-16T17:54:08.009Z,100806.02
2018-12-16T17:56:51.324Z,100807.80
2018-12-16T18:02:14.192Z,100813.55
2018-12-16T18:07:43.120Z,100827.30
2018-12-16T18:10:12.656Z,100822.98
2018-12-16T18:12:42.605Z,100827.12
2018-12-16T18:15:12.057Z,100819.22
2018-12-16T18:17:41.821Z,100815.77
2018-12-16T18:20:11.305Z,100820.02
2018-12-16T18:22:41.239Z,100823.13
2018-12-16T18:25:11.655Z,100820.10
2018-12-16T18:27:41.891Z,100816.72
2018-12-16T18:30:29.109Z,100817.64
2018-12-16T18:32:59.337Z,100818.48
2018-12-16T18:35:28.808Z,100820.20
2018-12-16T18:37:58.588Z,100827.35
2018-12-16T18:43:31.853Z,100828.19
2018-12-16T18:46:03.841Z,100835.62
2018-12-16T18:51:34.074Z,100836.73
2018-12-16T18:54:03.852Z,100831.25
2018-12-16T18:56:33.596Z,100837.80
2018-12-16T18:59:03.543Z,100839.38
2018-12-16T19:01:33.678Z,100833.57
2018-12-16T19:04:03.680Z,100841.70
2018-12-16T19:06:33.210Z,100844.64
2018-12-16T19:09:03.440Z,100837.61
2018-12-16T19:24:18.532Z,100834.59
2018-12-16T21:20:45.100Z,100860.44
2018-12-16T21:23:32.176Z,100855.44
2018-12-16T22:34:05.269Z,100880.16
2018-12-16T22:37:04.803Z,100875.38
2018-12-16T22:39:53.665Z,100875.95
2018-12-16T22:45:30.819Z,100871.72
2018-12-16T22:51:13.345Z,100872.52
2018-12-16T22:53:56.130Z,100873.45
2018-12-16T22:59:39.411Z,100870.44
2018-12-16T23:02:25.665Z,100866.09
2018-12-16T23:05:07.558Z,100868.53
2018-12-16T23:07:53.039Z,100866.05
2018-12-16T23:10:31.253Z,100868.23
2018-12-16T23:13:14.882Z,100874.94
2018-12-16T23:15:58.114Z,100869.36
2018-12-16T23:18:31.477Z,100876.52
